Time;durP1;ratioP1;P1;durP2;ratioP2;P2;SDS_P1;SDS_P2;PMS_P1;PMS_P2;Temp;Humidity;BMP_temperature;BMP_pressure;BME280_temperature;BME280_humidity;BME280_pressure;Samples;Min_cycle;Max_cycle;Signal;HPM_P1;HPM_P2
2022/03/02 00:00:41;;;;;;;18.17;10.32;;;8.90;99.90;;;;;;5014577;28;20087;-88
2022/03/02 00:03:06;;;;;;;16.85;10.73;;;8.90;99.90;;;;;;5014106;28;20038;-88
2022/03/02 00:05:33;;;;;;;22.05;11.32;;;9.30;99.90;;;;;;5017119;28;20030;-88
2022/03/02 00:07:59;;;;;;;15.70;10.18;;;8.80;99.90;;;;;;5031114;28;20029;-88
2022/03/02 00:10:25;;;;;;;19.92;10.13;;;8.80;99.90;;;;;;5033176;28;20072;-88
2022/03/02 00:12:50;;;;;;;19.85;10.27;;;8.90;99.90;;;;;;5035685;28;20021;-89
2022/03/02 00:15:16;;;;;;;23.13;10.77;;;8.70;99.90;;;;;;5019429;28;20034;-88
2022/03/02 00:17:42;;;;;;;17.30;9.63;;;8.70;99.90;;;;;;5018516;28;20030;-89
2022/03/02 00:20:09;;;;;;;20.65;10.68;;;8.60;99.90;;;;;;5019436;28;20128;-88
2022/03/02 00:22:36;;;;;;;23.13;11.10;;;8.70;99.90;;;;;;5021909;28;20063;-88
2022/03/02 00:25:02;;;;;;;19.02;10.75;;;8.50;99.90;;;;;;5017684;28;20022;-88
2022/03/02 00:27:28;;;;;;;19.73;10.45;;;9.00;99.90;;;;;;5018192;28;20033;-88
2022/03/02 00:29:53;;;;;;;15.93;9.95;;;8.50;99.90;;;;;;5035075;28;20025;-88
2022/03/02 00:32:19;;;;;;;19.55;9.82;;;8.50;99.90;;;;;;5019278;28;20075;-88
2022/03/02 00:34:45;;;;;;;22.88;11.00;;;8.50;99.90;;;;;;5035092;28;20021;-88
2022/03/02 00:37:12;;;;;;;22.13;10.43;;;8.70;99.90;;;;;;5019019;28;20037;-89
2022/03/02 00:39:38;;;;;;;20.35;10.52;;;8.50;99.90;;;;;;5010762;28;20559;-88
2022/03/02 00:42:06;;;;;;;17.33;10.07;;;8.60;99.90;;;;;;5020271;28;20045;-88
2022/03/02 00:44:32;;;;;;;18.95;10.50;;;8.70;99.90;;;;;;5035985;28;20021;-89
2022/03/02 00:46:58;;;;;;;22.52;10.25;;;8.60;99.90;;;;;;5035195;28;20477;-89
2022/03/02 00:49:27;;;;;;;18.15;10.45;;;8.60;99.90;;;;;;5018932;28;20049;-88
2022/03/02 00:51:56;;;;;;;17.48;9.80;;;8.60;99.90;;;;;;5017941;28;20025;-89
2022/03/02 00:54:23;;;;;;;16.88;10.68;;;8.50;99.90;;;;;;5029613;28;20025;-88
2022/03/02 00:56:49;;;;;;;16.90;10.73;;;8.50;99.90;;;;;;5034765;28;20052;-89
2022/03/02 00:59:15;;;;;;;15.55;9.93;;;8.70;99.90;;;;;;5018055;28;20030;-89
2022/03/02 01:01:41;;;;;;;20.20;10.73;;;8.60;99.90;;;;;;5035840;28;20412;-88
2022/03/02 01:04:09;;;;;;;19.77;10.50;;;8.60;99.90;;;;;;5035524;28;20022;-88
2022/03/02 01:06:35;;;;;;;17.10;10.45;;;8.70;99.90;;;;;;5017713;28;20049;-88
2022/03/02 01:09:02;;;;;;;21.17;10.70;;;8.40;99.90;;;;;;5019985;28;20068;-88
2022/03/02 01:11:27;;;;;;;18.23;10.85;;;8.50;99.90;;;;;;5018439;28;20666;-88
2022/03/02 01:13:53;;;;;;;17.83;10.35;;;8.40;99.90;;;;;;5034767;28;20116;-88
2022/03/02 01:16:19;;;;;;;18.85;10.57;;;8.50;99.90;;;;;;5034714;28;20025;-88
2022/03/02 01:18:44;;;;;;;17.05;10.02;;;8.40;99.90;;;;;;5017145;28;20025;-88
2022/03/02 01:21:10;;;;;;;20.75;9.68;;;8.30;99.90;;;;;;5034843;28;20026;-89
2022/03/02 01:23:36;;;;;;;15.30;10.10;;;8.40;99.90;;;;;;5018020;28;20025;-88
2022/03/02 01:26:03;;;;;;;15.85;9.93;;;8.40;99.90;;;;;;5019920;28;20029;-88
2022/03/02 01:28:29;;;;;;;18.92;10.10;;;8.30;99.90;;;;;;5018088;28;20030;-88
2022/03/02 01:30:54;;;;;;;16.80;9.43;;;8.20;99.90;;;;;;5034504;28;20018;-88
2022/03/02 01:33:20;;;;;;;18.70;10.27;;;8.10;99.90;;;;;;5017446;28;20029;-88
2022/03/02 01:35:46;;;;;;;17.83;9.75;;;8.30;99.90;;;;;;5017998;28;20088;-88
2022/03/02 01:38:12;;;;;;;21.35;10.48;;;8.20;99.90;;;;;;5034605;28;20488;-88
2022/03/02 01:40:37;;;;;;;15.35;9.20;;;8.30;99.90;;;;;;5034531;28;20079;-89
2022/03/02 01:43:04;;;;;;;17.02;9.30;;;8.30;99.90;;;;;;5016683;28;20456;-88
2022/03/02 01:45:30;;;;;;;22.27;10.45;;;8.60;99.90;;;;;;5034770;28;20075;-88
2022/03/02 01:47:59;;;;;;;18.23;10.27;;;8.10;99.90;;;;;;5019339;28;20041;-88
2022/03/02 01:50:25;;;;;;;16.80;9.85;;;8.10;99.90;;;;;;5018992;28;20018;-88
2022/03/02 01:52:51;;;;;;;19.63;9.98;;;8.20;99.90;;;;;;5017722;28;20049;-88
2022/03/02 01:55:16;;;;;;;19.90;9.65;;;8.20;99.90;;;;;;5017162;28;20075;-89
2022/03/02 01:57:43;;;;;;;17.92;9.80;;;8.20;99.90;;;;;;5034541;28;20116;-88
2022/03/02 02:00:12;;;;;;;20.40;9.65;;;8.10;99.90;;;;;;5034143;28;20025;-89
2022/03/02 02:02:38;;;;;;;18.60;9.52;;;7.90;99.90;;;;;;5020976;28;20132;-88
2022/03/02 02:05:04;;;;;;;21.98;9.77;;;8.00;99.90;;;;;;5018662;28;20036;-88
2022/03/02 02:07:30;;;;;;;19.27;9.52;;;7.90;99.90;;;;;;5017593;28;20040;-88
2022/03/02 02:09:57;;;;;;;19.38;9.80;;;8.00;99.90;;;;;;5033977;28;20026;-88
2022/03/02 02:12:23;;;;;;;19.50;9.63;;;8.10;99.90;;;;;;5034267;28;20109;-89
2022/03/02 02:14:49;;;;;;;17.38;9.52;;;8.20;99.90;;;;;;5017564;28;20026;-88
2022/03/02 02:17:14;;;;;;;14.70;9.13;;;8.20;99.90;;;;;;5033826;28;20025;-88
2022/03/02 02:19:40;;;;;;;17.38;10.02;;;8.00;99.90;;;;;;5017124;28;20034;-88
2022/03/02 02:22:06;;;;;;;15.55;9.15;;;8.00;99.90;;;;;;5033778;28;20115;-88
2022/03/02 02:24:31;;;;;;;22.65;9.90;;;8.00;99.90;;;;;;5016525;28;20385;-88
2022/03/02 02:26:57;;;;;;;18.20;8.95;;;8.20;99.90;;;;;;5019297;28;20041;-88
2022/03/02 02:29:25;;;;;;;18.95;9.60;;;8.20;99.90;;;;;;5033415;28;20117;-89
2022/03/02 02:31:51;;;;;;;21.67;9.77;;;8.20;99.90;;;;;;5029923;28;20029;-88
2022/03/02 02:34:17;;;;;;;18.75;9.07;;;8.30;99.90;;;;;;5032256;28;20025;-89
2022/03/02 02:36:43;;;;;;;17.45;8.65;;;8.10;99.90;;;;;;5016288;28;20503;-89
2022/03/02 02:39:10;;;;;;;16.42;8.77;;;8.10;99.90;;;;;;5031906;28;20049;-88
2022/03/02 02:41:36;;;;;;;15.65;9.13;;;8.00;99.90;;;;;;5016991;28;20036;-89
2022/03/02 02:44:02;;;;;;;16.92;9.50;;;8.20;99.90;;;;;;5016406;28;20026;-89
2022/03/02 02:46:27;;;;;;;15.27;8.80;;;8.20;99.90;;;;;;5017048;28;20116;-89
2022/03/02 02:48:53;;;;;;;19.15;9.43;;;8.10;99.90;;;;;;5015831;28;20026;-89
2022/03/02 02:51:19;;;;;;;17.83;9.05;;;8.10;99.90;;;;;;5033329;28;20103;-89
2022/03/02 02:53:44;;;;;;;19.10;9.50;;;8.10;99.90;;;;;;5033108;28;20029;-89
2022/03/02 02:56:10;;;;;;;16.15;8.73;;;8.10;99.90;;;;;;5033333;28;20425;-88
2022/03/02 02:58:36;;;;;;;16.02;9.00;;;8.10;99.90;;;;;;5033508;28;20033;-89
2022/03/02 03:01:03;;;;;;;17.98;9.00;;;8.00;99.90;;;;;;5015180;28;20437;-89
2022/03/02 03:03:28;;;;;;;17.55;8.75;;;8.10;99.90;;;;;;5015704;28;20084;-89
2022/03/02 03:05:54;;;;;;;17.15;8.93;;;8.20;99.90;;;;;;5016864;28;20025;-89
2022/03/02 03:08:20;;;;;;;21.23;9.60;;;8.40;99.90;;;;;;5017618;28;20024;-88
2022/03/02 03:10:46;;;;;;;19.20;9.60;;;7.90;99.90;;;;;;5033116;28;20025;-88
2022/03/02 03:13:12;;;;;;;18.83;9.27;;;8.00;99.90;;;;;;5033037;28;20509;-89
2022/03/02 03:15:38;;;;;;;15.43;8.70;;;8.10;99.90;;;;;;5033857;28;20025;-88
2022/03/02 03:18:05;;;;;;;18.20;9.07;;;8.00;99.90;;;;;;5032705;28;20033;-88
2022/03/02 03:20:32;;;;;;;18.23;9.82;;;8.00;99.90;;;;;;5032672;28;20024;-89
2022/03/02 03:22:58;;;;;;;16.15;8.82;;;7.80;99.90;;;;;;5032370;28;20493;-87
2022/03/02 03:25:24;;;;;;;19.33;8.98;;;7.80;99.90;;;;;;5032506;28;20405;-88
2022/03/02 03:27:51;;;;;;;18.55;9.55;;;7.90;99.90;;;;;;5015307;28;20485;-88
2022/03/02 03:30:19;;;;;;;16.85;8.32;;;7.80;99.90;;;;;;5033596;28;20053;-89
2022/03/02 03:32:45;;;;;;;14.73;8.25;;;7.90;99.90;;;;;;5022359;28;20025;-89
2022/03/02 03:35:12;;;;;;;18.65;9.00;;;8.30;99.90;;;;;;5032902;28;20086;-89
2022/03/02 03:37:38;;;;;;;17.05;9.18;;;7.90;99.90;;;;;;5032460;28;20041;-89
2022/03/02 03:40:06;;;;;;;18.00;8.85;;;8.10;99.90;;;;;;5014824;28;20124;-89
2022/03/02 03:42:32;;;;;;;16.65;9.13;;;7.70;99.90;;;;;;5031763;28;20036;-89
2022/03/02 03:44:58;;;;;;;14.70;9.15;;;7.70;99.90;;;;;;5019525;28;20025;-88
2022/03/02 03:47:24;;;;;;;17.67;9.15;;;7.90;99.90;;;;;;5038928;28;20516;-89
2022/03/02 03:49:49;;;;;;;23.65;10.55;;;7.70;99.90;;;;;;5039123;28;20041;-88
2022/03/02 03:52:15;;;;;;;16.70;8.98;;;7.90;99.90;;;;;;5022267;28;20037;-89
2022/03/02 03:54:40;;;;;;;19.35;9.05;;;7.60;99.90;;;;;;5021902;28;20432;-89
2022/03/02 03:57:07;;;;;;;14.52;9.00;;;7.50;99.90;;;;;;5038270;28;20112;-89
2022/03/02 03:59:33;;;;;;;14.48;8.77;;;7.60;99.90;;;;;;5039651;28;20056;-88
2022/03/02 04:01:59;;;;;;;16.75;8.70;;;7.80;99.90;;;;;;5038641;28;20068;-88
2022/03/02 04:04:25;;;;;;;18.52;8.52;;;7.60;99.90;;;;;;5039042;28;20397;-88
2022/03/02 04:06:51;;;;;;;17.50;9.10;;;8.00;99.90;;;;;;5021082;28;20546;-87
2022/03/02 04:09:17;;;;;;;16.83;8.70;;;7.60;99.90;;;;;;5039404;28;20030;-88
2022/03/02 04:11:43;;;;;;;19.45;9.50;;;7.60;99.90;;;;;;5038657;28;20037;-89
2022/03/02 04:14:09;;;;;;;20.05;9.90;;;7.50;99.90;;;;;;5038799;28;20085;-89
2022/03/02 04:16:35;;;;;;;15.85;8.60;;;7.50;99.90;;;;;;5038848;28;20405;-89
2022/03/02 04:19:01;;;;;;;17.15;9.15;;;7.60;99.90;;;;;;5038999;28;20029;-88
2022/03/02 04:21:27;;;;;;;17.95;9.35;;;7.40;99.90;;;;;;5022825;28;20060;-88
2022/03/02 04:23:52;;;;;;;19.13;10.50;;;7.90;99.90;;;;;;5038600;28;20063;-88
2022/03/02 04:26:18;;;;;;;21.35;9.15;;;7.50;99.90;;;;;;5028461;28;20036;-89
2022/03/02 04:28:44;;;;;;;15.57;8.85;;;7.30;99.90;;;;;;5038985;28;20028;-89
2022/03/02 04:31:10;;;;;;;18.63;8.75;;;7.60;99.90;;;;;;5021570;28;20025;-88
2022/03/02 04:33:36;;;;;;;14.00;8.55;;;7.60;99.90;;;;;;5021628;28;20284;-89
2022/03/02 04:36:02;;;;;;;20.23;8.85;;;7.70;99.90;;;;;;5038703;28;20489;-88
2022/03/02 04:38:27;;;;;;;18.65;8.65;;;7.70;99.90;;;;;;5022043;28;20041;-88
2022/03/02 04:40:53;;;;;;;17.10;8.93;;;7.70;99.90;;;;;;5038163;28;20042;-88
2022/03/02 04:43:19;;;;;;;16.05;8.85;;;7.80;99.90;;;;;;5022417;28;20021;-88
2022/03/02 04:45:44;;;;;;;17.70;8.63;;;7.50;99.90;;;;;;5020908;28;20033;-88
2022/03/02 04:48:10;;;;;;;17.27;8.48;;;7.40;99.90;;;;;;5038645;28;20105;-89
2022/03/02 04:50:36;;;;;;;15.95;8.75;;;7.40;99.90;;;;;;5038820;28;20033;-88
2022/03/02 04:53:02;;;;;;;17.23;8.90;;;7.50;99.90;;;;;;5038808;28;20052;-89
2022/03/02 04:55:28;;;;;;;14.65;8.05;;;7.50;99.90;;;;;;5038782;28;20048;-89
2022/03/02 04:58:00;;;;;;;12.85;8.30;;;7.40;99.90;;;;;;5017535;28;20025;-89
2022/03/02 05:00:31;;;;;;;14.07;8.45;;;7.30;99.90;;;;;;5034066;28;20452;-89
2022/03/02 05:02:58;;;;;;;16.70;8.73;;;7.30;99.90;;;;;;5035805;28;20493;-89
2022/03/02 05:05:25;;;;;;;16.98;8.40;;;7.30;99.90;;;;;;5035601;28;20116;-89
2022/03/02 05:07:51;;;;;;;16.30;8.43;;;7.80;99.90;;;;;;5035152;28;20045;-89
2022/03/02 05:10:19;;;;;;;17.52;10.50;;;7.30;99.90;;;;;;5018663;28;20025;-89
2022/03/02 05:12:45;;;;;;;16.42;9.18;;;7.60;99.90;;;;;;5018758;28;20114;-88
2022/03/02 05:15:12;;;;;;;19.70;9.48;;;7.50;99.90;;;;;;5034055;28;20025;-90
2022/03/02 05:17:40;;;;;;;15.57;9.07;;;7.10;99.90;;;;;;5018670;28;20025;-89
2022/03/02 05:20:07;;;;;;;17.42;9.15;;;7.10;99.90;;;;;;5018828;28;20029;-89
2022/03/02 05:22:33;;;;;;;14.05;8.27;;;7.20;99.90;;;;;;5035264;28;20038;-89
2022/03/02 05:24:59;;;;;;;15.02;9.13;;;7.30;99.90;;;;;;5017729;28;20049;-89
2022/03/02 05:27:25;;;;;;;15.57;8.75;;;7.40;99.90;;;;;;5017709;28;20470;-87
2022/03/02 05:29:51;;;;;;;18.85;9.70;;;7.70;99.90;;;;;;5034603;28;20075;-88
2022/03/02 05:32:16;;;;;;;20.42;8.88;;;7.30;99.90;;;;;;5035186;28;20033;-89
2022/03/02 05:34:43;;;;;;;17.92;9.52;;;7.80;99.90;;;;;;5019554;28;20029;-89
2022/03/02 05:37:09;;;;;;;20.45;9.52;;;7.60;99.90;;;;;;5018886;28;20509;-89
2022/03/02 05:39:35;;;;;;;17.20;8.43;;;7.50;99.90;;;;;;5035333;28;20036;-89
2022/03/02 05:42:01;;;;;;;17.75;8.40;;;7.40;99.90;;;;;;5034332;28;20037;-89
2022/03/02 05:44:26;;;;;;;19.13;8.93;;;7.50;99.90;;;;;;5034672;28;20085;-89
2022/03/02 05:46:52;;;;;;;14.10;8.02;;;7.40;99.90;;;;;;5020450;28;20124;-89
2022/03/02 05:49:18;;;;;;;20.20;8.18;;;7.40;99.90;;;;;;5017620;28;20509;-89
2022/03/02 05:51:44;;;;;;;19.10;8.90;;;7.30;99.90;;;;;;5034705;28;20022;-89
2022/03/02 05:54:10;;;;;;;13.85;8.82;;;7.70;99.90;;;;;;5034706;28;20067;-89
2022/03/02 05:56:37;;;;;;;19.25;9.25;;;7.30;99.90;;;;;;5017835;28;20056;-89
2022/03/02 05:59:12;;;;;;;15.52;8.50;;;7.40;99.90;;;;;;5034075;28;20037;-89
2022/03/02 06:01:38;;;;;;;20.67;8.93;;;7.50;99.90;;;;;;5018360;28;20033;-89
2022/03/02 06:04:05;;;;;;;12.00;8.07;;;7.30;99.90;;;;;;5016914;28;20524;-89
2022/03/02 06:06:33;;;;;;;16.63;8.65;;;7.40;99.90;;;;;;5034957;28;20024;-89
2022/03/02 06:09:00;;;;;;;13.52;8.57;;;7.80;99.90;;;;;;5034007;28;20030;-89
2022/03/02 06:11:27;;;;;;;16.40;8.40;;;7.30;99.90;;;;;;5033808;28;20026;-88
2022/03/02 06:13:53;;;;;;;17.10;8.50;;;7.30;99.90;;;;;;5034318;28;20026;-89
2022/03/02 06:16:19;;;;;;;14.25;8.75;;;7.30;99.90;;;;;;5034207;28;20037;-89
2022/03/02 06:18:45;;;;;;;17.50;8.55;;;7.30;99.90;;;;;;5033521;28;20132;-88
2022/03/02 06:21:16;;;;;;;16.52;8.80;;;7.30;99.90;;;;;;5016516;28;20040;-89
2022/03/02 06:23:42;;;;;;;15.75;8.98;;;7.30;99.90;;;;;;5034048;28;20481;-89
2022/03/02 06:26:07;;;;;;;17.02;8.50;;;7.50;99.90;;;;;;5033321;28;20037;-90
2022/03/02 06:28:34;;;;;;;18.45;8.85;;;7.50;99.90;;;;;;5033967;28;20033;-89
2022/03/02 06:30:59;;;;;;;22.75;8.63;;;7.50;99.90;;;;;;5033556;28;20120;-88
2022/03/02 06:33:25;;;;;;;17.65;8.63;;;7.40;99.90;;;;;;5016675;28;20076;-89
2022/03/02 06:35:51;;;;;;;17.45;8.98;;;7.40;99.90;;;;;;5033965;28;20018;-89
2022/03/02 06:38:18;;;;;;;19.80;8.43;;;7.40;99.90;;;;;;5019495;28;20100;-89
2022/03/02 06:41:28;;;;;;;16.70;8.77;;;7.50;99.90;;;;;;5032869;28;20026;-89
2022/03/02 06:44:00;;;;;;;13.25;7.85;;;7.60;99.90;;;;;;4943160;28;20074;-89
2022/03/02 06:46:30;;;;;;;12.68;7.82;;;7.60;99.90;;;;;;4952235;28;20530;-89
2022/03/02 06:49:01;;;;;;;17.65;8.70;;;7.80;99.90;;;;;;4954181;28;20574;-89
2022/03/02 06:51:29;;;;;;;17.77;8.50;;;8.00;99.90;;;;;;4952312;29;20023;-89
2022/03/02 06:53:58;;;;;;;16.08;7.95;;;7.70;99.90;;;;;;4935863;29;20258;-89
2022/03/02 06:56:27;;;;;;;17.23;8.52;;;7.80;99.90;;;;;;4948507;29;20516;-89
2022/03/02 06:58:55;;;;;;;14.52;8.30;;;7.90;99.90;;;;;;4951446;29;20027;-89
2022/03/02 07:01:26;;;;;;;12.15;8.23;;;7.90;99.90;;;;;;4950731;29;20130;-89
2022/03/02 07:03:57;;;;;;;17.02;8.65;;;7.90;99.90;;;;;;4952952;28;20031;-89
2022/03/02 07:06:24;;;;;;;13.35;8.13;;;7.80;99.90;;;;;;4952287;29;20154;-89
2022/03/02 07:08:50;;;;;;;16.23;8.15;;;7.90;99.90;;;;;;4934944;29;20042;-89
2022/03/02 07:11:17;;;;;;;14.20;8.18;;;8.00;99.90;;;;;;4953331;28;20035;-89
2022/03/02 07:13:47;;;;;;;14.25;8.15;;;8.10;99.90;;;;;;4952198;28;20035;-89
2022/03/02 07:16:13;;;;;;;12.98;7.40;;;8.10;99.90;;;;;;4936994;28;20026;-89
2022/03/02 07:18:40;;;;;;;16.48;7.53;;;8.30;99.90;;;;;;4953944;29;20043;-89
2022/03/02 07:21:11;;;;;;;16.02;8.32;;;8.20;99.90;;;;;;5011407;28;20508;-89
2022/03/02 07:23:41;;;;;;;15.00;7.63;;;8.60;99.90;;;;;;5032265;28;20021;-89
2022/03/02 07:26:09;;;;;;;14.65;8.07;;;8.30;99.90;;;;;;5032759;28;20100;-89
2022/03/02 07:28:38;;;;;;;13.52;7.10;;;8.40;99.90;;;;;;5033389;28;20030;-83
2022/03/02 07:31:06;;;;;;;12.20;8.07;;;8.50;99.90;;;;;;5030894;28;20032;-83
2022/03/02 07:33:35;;;;;;;19.13;8.32;;;8.60;99.90;;;;;;5031716;28;20083;-83
2022/03/02 07:36:01;;;;;;;14.38;8.07;;;8.70;99.90;;;;;;5031179;28;20037;-84
2022/03/02 07:38:28;;;;;;;16.45;7.57;;;8.80;99.90;;;;;;5030282;28;20398;-83
2022/03/02 07:40:54;;;;;;;14.02;7.55;;;8.80;99.90;;;;;;5031114;28;20037;-84
2022/03/02 07:43:20;;;;;;;12.05;7.22;;;9.00;99.90;;;;;;5030970;28;20454;-84
2022/03/02 07:45:46;;;;;;;13.43;6.70;;;9.10;99.90;;;;;;5013241;28;20025;-84
2022/03/02 07:48:12;;;;;;;16.17;7.40;;;9.20;99.90;;;;;;5014796;28;20083;-84
2022/03/02 07:50:39;;;;;;;17.48;7.15;;;9.40;99.90;;;;;;5031126;28;20487;-83
2022/03/02 07:53:07;;;;;;;10.30;7.20;;;9.40;99.90;;;;;;5030305;28;20034;-84
2022/03/02 07:55:33;;;;;;;13.50;6.75;;;9.70;99.90;;;;;;5030643;28;20038;-83
2022/03/02 07:58:03;;;;;;;12.85;7.07;;;9.70;99.90;;;;;;5030736;28;20580;-83
2022/03/02 08:00:29;;;;;;;13.13;7.13;;;9.50;99.90;;;;;;5031674;28;20390;-83
2022/03/02 08:02:59;;;;;;;10.85;6.60;;;9.70;99.90;;;;;;5030631;28;20117;-83
2022/03/02 08:05:26;;;;;;;16.88;8.23;;;9.90;99.90;;;;;;5031212;28;20435;-83
2022/03/02 08:07:51;;;;;;;16.30;7.88;;;10.00;99.90;;;;;;5029888;28;20032;-83
2022/03/02 08:10:18;;;;;;;17.02;9.02;;;10.00;99.90;;;;;;5030763;28;20026;-83
2022/03/02 08:12:44;;;;;;;18.70;10.75;;;10.00;99.90;;;;;;5031177;28;20030;-83
2022/03/02 08:15:10;;;;;;;19.13;9.77;;;10.10;99.90;;;;;;5030833;28;20104;-83
2022/03/02 08:17:36;;;;;;;13.13;7.70;;;10.40;99.90;;;;;;5014715;28;20026;-83
2022/03/02 08:20:04;;;;;;;12.93;7.38;;;10.40;99.90;;;;;;5030585;28;20516;-83
2022/03/02 08:22:31;;;;;;;12.50;7.60;;;10.10;99.90;;;;;;5030104;28;20037;-84
2022/03/02 08:25:10;;;;;;;11.70;6.57;;;10.10;99.90;;;;;;5031310;28;20026;-83
2022/03/02 08:27:41;;;;;;;11.13;6.72;;;10.30;99.90;;;;;;5030707;28;20108;-84
2022/03/02 08:30:09;;;;;;;16.50;8.25;;;10.30;99.90;;;;;;5030405;28;20022;-84
2022/03/02 08:32:39;;;;;;;16.80;8.50;;;10.30;99.90;;;;;;5032042;28;20053;-84
2022/03/02 08:35:06;;;;;;;16.05;8.05;;;10.70;99.90;;;;;;5034380;28;20405;-84
2022/03/02 08:37:32;;;;;;;11.13;7.43;;;10.60;99.90;;;;;;5033694;28;20099;-84
2022/03/02 08:40:00;;;;;;;12.75;7.03;;;10.80;99.90;;;;;;5034436;28;20045;-84
2022/03/02 08:42:26;;;;;;;10.35;5.78;;;11.10;99.90;;;;;;5034343;28;20103;-83
2022/03/02 08:44:54;;;;;;;11.73;6.60;;;11.00;99.90;;;;;;5033733;28;20036;-84
2022/03/02 08:47:22;;;;;;;10.25;6.53;;;11.50;99.90;;;;;;5034223;28;20029;-84
2022/03/02 08:49:49;;;;;;;11.15;6.60;;;12.10;99.90;;;;;;5033788;28;20505;-84
2022/03/02 08:52:17;;;;;;;8.60;6.05;;;11.90;99.90;;;;;;5033701;28;20025;-84
2022/03/02 08:54:48;;;;;;;12.27;6.70;;;11.50;99.90;;;;;;5034095;28;20072;-84
2022/03/02 08:57:18;;;;;;;7.28;5.10;;;11.40;99.90;;;;;;5034438;28;20508;-84
2022/03/02 08:59:44;;;;;;;10.30;5.68;;;11.00;99.90;;;;;;5033884;28;20049;-84
2022/03/02 09:02:10;;;;;;;9.68;5.50;;;11.00;99.90;;;;;;5033843;28;20069;-84
2022/03/02 09:04:38;;;;;;;14.95;6.72;;;10.90;99.90;;;;;;5034516;28;20018;-84
2022/03/02 09:07:04;;;;;;;11.52;6.47;;;11.30;99.90;;;;;;5033317;28;20128;-84
2022/03/02 09:09:31;;;;;;;12.38;6.43;;;11.40;99.90;;;;;;5034664;28;20100;-84
2022/03/02 09:11:57;;;;;;;11.18;6.43;;;11.40;99.90;;;;;;5033673;28;20033;-84
2022/03/02 09:14:24;;;;;;;8.60;6.32;;;11.50;99.90;;;;;;5033446;28;20033;-84
2022/03/02 09:16:49;;;;;;;13.77;6.55;;;11.60;99.90;;;;;;5033491;28;20113;-84
2022/03/02 09:19:16;;;;;;;9.35;5.90;;;11.60;99.90;;;;;;5033389;28;20471;-84
2022/03/02 09:21:45;;;;;;;7.82;4.88;;;11.90;99.90;;;;;;5033947;28;20457;-83
2022/03/02 09:24:12;;;;;;;10.13;4.85;;;11.80;99.90;;;;;;5033340;28;20021;-83
2022/03/02 09:26:39;;;;;;;12.23;5.60;;;11.70;99.90;;;;;;5016609;28;20060;-84
2022/03/02 09:29:06;;;;;;;8.63;4.78;;;11.90;99.90;;;;;;5033207;28;20021;-84
2022/03/02 09:31:37;;;;;;;8.38;5.40;;;12.30;99.90;;;;;;5022364;28;20059;-83
2022/03/02 09:34:07;;;;;;;8.70;5.68;;;12.60;99.90;;;;;;5018811;28;20108;-84
2022/03/02 09:36:38;;;;;;;6.95;4.82;;;12.60;99.90;;;;;;5008647;28;20069;-83
2022/03/02 09:39:07;;;;;;;10.15;5.15;;;12.60;99.90;;;;;;5022283;28;20052;-84
2022/03/02 09:41:48;;;;;;;10.55;4.82;;;12.30;99.90;;;;;;5028100;28;20045;-84
2022/03/02 09:44:18;;;;;;;7.68;4.90;;;12.40;99.90;;;;;;5031913;28;20051;-84
2022/03/02 09:46:55;;;;;;;9.73;5.05;;;12.50;99.90;;;;;;5032977;28;20026;-84
2022/03/02 09:49:22;;;;;;;8.32;5.25;;;12.30;99.90;;;;;;5018288;28;20017;-84
2022/03/02 09:51:56;;;;;;;7.15;5.03;;;12.50;99.90;;;;;;5033124;28;20041;-84
2022/03/02 09:54:22;;;;;;;8.60;5.05;;;12.40;99.90;;;;;;5031208;28;20026;-84
2022/03/02 09:56:53;;;;;;;7.85;5.75;;;12.50;99.90;;;;;;5032222;28;20366;-84
2022/03/02 09:59:23;;;;;;;6.50;4.63;;;12.60;99.90;;;;;;5017005;28;20029;-84
2022/03/02 10:01:50;;;;;;;8.70;5.00;;;12.70;99.90;;;;;;5032326;28;20068;-83
2022/03/02 10:04:22;;;;;;;12.80;5.55;;;12.70;99.90;;;;;;5033394;28;20025;-84
2022/03/02 10:07:26;;;;;;;8.45;5.47;;;13.00;99.90;;;;;;5032636;28;20444;-84
2022/03/02 10:09:46;;;;;;;9.68;5.40;;;13.20;99.90;;;;;;5029412;28;20022;-84
2022/03/02 10:12:14;;;;;;;7.72;5.15;;;13.40;99.90;;;;;;5032449;28;20037;-84
2022/03/02 10:14:42;;;;;;;8.02;5.47;;;14.50;99.90;;;;;;5032337;28;20025;-84
2022/03/02 10:17:11;;;;;;;7.47;5.00;;;16.30;99.90;;;;;;5032981;28;20040;-84
2022/03/02 10:19:51;;;;;;;9.25;5.43;;;16.80;99.90;;;;;;5032000;28;20385;-83
2022/03/02 10:22:36;;;;;;;10.20;5.10;;;16.10;99.90;;;;;;5017095;28;20057;-84
2022/03/02 10:25:05;;;;;;;8.20;5.10;;;15.80;99.90;;;;;;5032044;28;20036;-84
2022/03/02 10:28:01;;;;;;;8.95;5.32;;;14.90;99.90;;;;;;5033799;28;20100;-84
2022/03/02 10:30:40;;;;;;;8.70;5.15;;;15.10;99.90;;;;;;5031247;28;20025;-84
2022/03/02 10:33:19;;;;;;;8.68;5.00;;;16.00;99.90;;;;;;5031918;28;20056;-83
2022/03/02 10:36:00;;;;;;;7.82;4.70;;;17.10;99.90;;;;;;5032357;28;20021;-84
2022/03/02 10:38:49;;;;;;;7.63;4.85;;;17.50;99.90;;;;;;5031562;28;20037;-84
2022/03/02 10:41:17;;;;;;;7.80;4.90;;;18.40;99.90;;;;;;5015156;28;20464;-84
2022/03/02 10:43:57;;;;;;;7.03;3.97;;;19.30;99.90;;;;;;5031955;28;20478;-84
2022/03/02 10:46:24;;;;;;;8.40;4.10;;;20.90;99.90;;;;;;5018212;28;20083;-84
2022/03/02 10:48:59;;;;;;;8.90;4.45;;;20.80;99.90;;;;;;5031842;28;20485;-84
2022/03/02 10:51:26;;;;;;;6.28;4.60;;;20.60;99.90;;;;;;5013077;28;20053;-84
2022/03/02 10:53:53;;;;;;;7.43;4.70;;;19.90;99.90;;;;;;5014912;28;20033;-85
2022/03/02 10:56:20;;;;;;;9.90;4.88;;;20.40;99.90;;;;;;5030977;28;20021;-84
2022/03/02 10:58:50;;;;;;;6.63;5.18;;;20.40;99.90;;;;;;5031725;28;20505;-84
2022/03/02 11:01:18;;;;;;;8.70;5.25;;;20.40;99.90;;;;;;5031087;28;20037;-84
2022/03/02 11:03:44;;;;;;;9.48;4.95;;;20.70;99.90;;;;;;5031730;28;20030;-84
2022/03/02 11:06:11;;;;;;;8.63;5.38;;;21.80;99.90;;;;;;5031334;28;20021;-84
2022/03/02 11:08:38;;;;;;;9.07;5.10;;;21.40;99.90;;;;;;5031559;28;20060;-84
2022/03/02 11:11:07;;;;;;;5.43;4.80;;;20.70;99.90;;;;;;5031298;28;20030;-84
2022/03/02 11:13:33;;;;;;;6.63;5.18;;;19.80;99.90;;;;;;5031249;28;20083;-84
2022/03/02 11:16:02;;;;;;;6.28;4.90;;;19.20;99.90;;;;;;5030772;28;20033;-83
2022/03/02 11:18:34;;;;;;;7.65;4.88;;;19.70;99.90;;;;;;5032456;28;20026;-84
2022/03/02 11:21:02;;;;;;;5.68;4.53;;;19.60;99.90;;;;;;5031242;28;20040;-84
2022/03/02 11:23:32;;;;;;;7.85;5.40;;;19.20;99.90;;;;;;5030986;28;20021;-84
2022/03/02 11:26:05;;;;;;;6.80;5.32;;;18.60;99.90;;;;;;5031629;28;20563;-84
2022/03/02 11:28:31;;;;;;;6.82;5.35;;;19.20;99.90;;;;;;5031169;28;20375;-83
2022/03/02 11:31:05;;;;;;;7.20;4.72;;;19.30;99.90;;;;;;5030967;28;20120;-84
2022/03/02 11:33:32;;;;;;;8.73;5.35;;;19.60;99.90;;;;;;5030771;28;20499;-83
2022/03/02 11:36:12;;;;;;;8.43;4.93;;;20.20;99.90;;;;;;5031164;28;20115;-84
2022/03/02 11:38:43;;;;;;;5.03;4.22;;;20.50;99.90;;;;;;5030742;28;20045;-84
2022/03/02 11:41:11;;;;;;;7.20;4.65;;;19.20;99.90;;;;;;5030794;28;20025;-84
2022/03/02 11:43:37;;;;;;;6.40;4.80;;;19.60;99.90;;;;;;5030687;28;20037;-84
2022/03/02 11:46:06;;;;;;;6.88;4.35;;;20.30;99.90;;;;;;5030425;28;20033;-84
2022/03/02 11:48:38;;;;;;;6.18;4.38;;;20.90;99.90;;;;;;5031483;28;20033;-84
2022/03/02 11:51:14;;;;;;;5.97;4.63;;;20.20;99.90;;;;;;5031221;28;20033;-84
2022/03/02 11:53:45;;;;;;;6.47;4.93;;;19.60;99.90;;;;;;5030569;28;20081;-83
2022/03/02 11:56:14;;;;;;;7.68;5.43;;;18.50;99.90;;;;;;5030765;28;20595;-84
2022/03/02 11:59:06;;;;;;;9.90;6.22;;;18.30;99.90;;;;;;5030512;28;20033;-83
2022/03/02 12:01:43;;;;;;;7.65;5.30;;;18.50;99.90;;;;;;5017633;28;20155;-84
2022/03/02 12:04:09;;;;;;;8.70;5.50;;;17.90;99.90;;;;;;5031072;28;20029;-83
2022/03/02 12:06:44;;;;;;;5.78;5.18;;;17.00;99.90;;;;;;5032874;28;20394;-84
2022/03/02 12:09:21;;;;;;;7.85;5.05;;;16.70;99.90;;;;;;5034781;28;20030;-84
2022/03/02 12:11:47;;;;;;;6.75;4.80;;;16.60;99.90;;;;;;5034909;28;20029;-84
2022/03/02 12:14:15;;;;;;;8.38;4.95;;;17.40;99.90;;;;;;5034084;28;20422;-84
2022/03/02 12:16:43;;;;;;;5.30;4.68;;;17.80;99.90;;;;;;5035118;28;20026;-83
2022/03/02 12:19:25;;;;;;;5.28;4.00;;;17.50;99.90;;;;;;5034396;28;20026;-84
2022/03/02 12:21:59;;;;;;;7.07;4.85;;;17.00;99.90;;;;;;5031732;28;20037;-84
2022/03/02 12:24:32;;;;;;;7.50;4.82;;;16.80;99.90;;;;;;5033368;28;20025;-83
2022/03/02 12:27:06;;;;;;;7.15;4.53;;;16.40;99.90;;;;;;5035075;28;20032;-84
2022/03/02 12:29:39;;;;;;;6.50;5.00;;;16.40;99.90;;;;;;5033752;28;20409;-84
2022/03/02 12:32:17;;;;;;;7.88;5.28;;;15.90;99.90;;;;;;5034244;28;20476;-83
2022/03/02 12:34:48;;;;;;;10.85;4.60;;;16.30;99.90;;;;;;5033968;28;20021;-83
2022/03/02 12:37:16;;;;;;;8.48;4.57;;;16.60;99.90;;;;;;5019070;28;20065;-83
2022/03/02 12:39:42;;;;;;;6.38;4.97;;;16.30;99.90;;;;;;5029998;28;20378;-83
2022/03/02 12:42:10;;;;;;;8.98;4.97;;;15.40;99.90;;;;;;5033868;28;20041;-84
2022/03/02 12:44:41;;;;;;;6.00;4.57;;;15.20;99.90;;;;;;5034231;28;20018;-83
2022/03/02 12:47:12;;;;;;;7.43;4.45;;;15.20;99.90;;;;;;5033981;28;20121;-84
2022/03/02 12:49:40;;;;;;;5.90;4.32;;;15.30;99.90;;;;;;5034309;28;20021;-83